Time;durP1;ratioP1;P1;durP2;ratioP2;P2;SDS_P1;SDS_P2;PMS_P1;PMS_P2;Temp;Humidity;BMP_temperature;BMP_pressure;BME280_temperature;BME280_humidity;BME280_pressure;Samples;Min_cycle;Max_cycle;Signal;HPM_P1;HPM_P2
2023/04/16 00:00:08;;;;;;;12.10;4.03;;;;;;;7.89;100.00;102144.31;4959605;28;20467;-88
2023/04/16 00:02:34;;;;;;;11.57;4.03;;;;;;;7.90;100.00;102146.94;4961327;28;20042;-88
2023/04/16 00:05:00;;;;;;;10.20;3.83;;;;;;;7.91;100.00;102153.78;4961223;28;20108;-88
2023/04/16 00:07:25;;;;;;;13.85;3.85;;;;;;;7.91;100.00;102153.78;4960546;28;20037;-87
2023/04/16 00:09:50;;;;;;;9.88;4.00;;;;;;;7.90;100.00;102154.66;4961653;28;20399;-87
2023/04/16 00:12:16;;;;;;;11.13;3.92;;;;;;;7.94;100.00;102151.25;4961304;28;20186;-87
2023/04/16 00:14:42;;;;;;;10.93;4.05;;;;;;;7.92;100.00;102150.34;4960453;28;20121;-88
2023/04/16 00:17:08;;;;;;;12.27;3.85;;;;;;;7.87;100.00;102140.84;4939346;28;20034;-87
2023/04/16 00:19:33;;;;;;;13.88;4.22;;;;;;;7.93;100.00;102151.22;4961159;28;20212;-87
2023/04/16 00:21:59;;;;;;;11.27;3.38;;;;;;;7.85;100.00;102133.09;4961282;28;20034;-87
2023/04/16 00:24:24;;;;;;;13.60;4.03;;;;;;;7.86;100.00;102126.22;4944434;28;20027;-87
2023/04/16 00:26:50;;;;;;;11.43;3.72;;;;;;;7.95;100.00;102144.38;4961283;28;20031;-87
2023/04/16 00:29:18;;;;;;;9.60;3.80;;;;;;;7.99;100.00;102159.00;4960788;28;20050;-88
2023/04/16 00:31:43;;;;;;;10.40;4.00;;;;;;;7.81;100.00;102121.03;4939205;28;20364;-88
2023/04/16 00:34:09;;;;;;;14.75;4.05;;;;;;;7.85;100.00;102124.47;4960742;28;20631;-87
2023/04/16 00:36:35;;;;;;;11.10;3.55;;;;;;;7.93;100.00;102138.31;4959673;28;20030;-87
2023/04/16 00:39:00;;;;;;;14.82;4.18;;;;;;;7.93;100.00;102144.34;4959730;28;20419;-87
2023/04/16 00:41:26;;;;;;;8.55;4.13;;;;;;;7.91;100.00;102135.72;4942998;28;20030;-87
2023/04/16 00:43:51;;;;;;;11.45;4.40;;;;;;;7.99;100.00;102146.09;4960825;28;20484;-87
2023/04/16 00:46:18;;;;;;;15.50;4.68;;;;;;;7.99;100.00;102151.28;4960233;28;20085;-87
2023/04/16 00:48:44;;;;;;;14.65;4.50;;;;;;;7.97;100.00;102146.97;4943215;28;20031;-87
2023/04/16 00:51:10;;;;;;;11.73;4.07;;;;;;;7.99;100.00;102148.69;4941054;28;20033;-87
2023/04/16 00:53:36;;;;;;;14.00;4.45;;;;;;;7.98;100.00;102147.00;4945042;28;20054;-87
2023/04/16 00:56:04;;;;;;;15.18;4.97;;;;;;;7.91;100.00;102138.28;4961056;28;20023;-87
2023/04/16 00:58:31;;;;;;;11.48;4.97;;;;;;;7.94;100.00;102138.34;4960923;28;20031;-87
2023/04/16 01:00:56;;;;;;;11.73;4.97;;;;;;;7.90;100.00;102127.97;4958817;28;20062;-87
2023/04/16 01:03:23;;;;;;;9.43;4.70;;;;;;;7.99;100.00;102138.38;4959847;28;20077;-87
2023/04/16 01:05:49;;;;;;;12.07;4.68;;;;;;;7.88;100.00;102122.81;4959043;28;20162;-87
2023/04/16 01:08:19;;;;;;;11.18;5.22;;;;;;;7.99;100.00;102138.38;4959899;28;20139;-87
2023/04/16 01:10:44;;;;;;;14.43;5.38;;;;;;;8.00;100.00;102142.69;4943788;28;20329;-87
2023/04/16 01:13:10;;;;;;;13.85;5.22;;;;;;;8.00;100.00;102136.66;4942535;28;20035;-87
2023/04/16 01:15:36;;;;;;;13.77;5.32;;;;;;;8.00;100.00;102140.09;4958473;28;20069;-88
2023/04/16 01:18:01;;;;;;;12.65;5.10;;;;;;;8.04;100.00;102138.41;4960498;28;20029;-88
2023/04/16 01:20:27;;;;;;;14.88;5.30;;;;;;;7.93;100.00;102117.66;4961525;28;20026;-88
2023/04/16 01:22:52;;;;;;;9.65;5.15;;;;;;;7.98;100.00;102128.06;4960679;28;20588;-88
2023/04/16 01:25:17;;;;;;;10.82;5.28;;;;;;;8.01;100.00;102131.50;4959183;28;20062;-89
2023/04/16 01:27:43;;;;;;;15.48;5.55;;;;;;;7.99;100.00;102130.63;4960037;28;20039;-89
2023/04/16 01:30:08;;;;;;;11.95;5.25;;;;;;;8.03;100.00;102137.56;4942630;28;20479;-88
2023/04/16 01:32:34;;;;;;;14.40;5.28;;;;;;;8.00;100.00;102132.34;4959323;28;20370;-88
2023/04/16 01:34:59;;;;;;;13.25;5.35;;;;;;;8.03;100.00;102144.44;4959214;28;20042;-88
2023/04/16 01:37:25;;;;;;;12.52;5.10;;;;;;;7.98;100.00;102130.63;4961792;28;20049;-88
2023/04/16 01:39:51;;;;;;;14.52;5.43;;;;;;;7.99;100.00;102138.38;4960702;28;20212;-88
2023/04/16 01:42:16;;;;;;;9.57;4.70;;;;;;;8.05;100.00;102147.91;4959735;28;20034;-88
2023/04/16 01:44:41;;;;;;;14.10;5.47;;;;;;;8.02;100.00;102150.44;4940701;28;20034;-88
2023/04/16 01:47:07;;;;;;;12.38;5.22;;;;;;;8.00;100.00;102139.22;4960025;28;20058;-89
2023/04/16 01:49:33;;;;;;;14.85;5.28;;;;;;;8.07;100.00;102151.34;4937129;28;20053;-88
2023/04/16 01:51:58;;;;;;;12.20;4.90;;;;;;;8.05;100.00;102148.72;4958622;28;20061;-88
2023/04/16 01:54:24;;;;;;;8.82;4.78;;;;;;;8.04;100.00;102144.44;4936058;28;20034;-88
2023/04/16 01:56:50;;;;;;;14.20;5.00;;;;;;;8.06;100.00;102152.19;4958993;28;20489;-88
2023/04/16 01:59:15;;;;;;;10.05;5.15;;;;;;;8.00;100.00;102142.69;4943188;28;20045;-88
2023/04/16 02:01:41;;;;;;;13.73;5.20;;;;;;;8.02;100.00;102142.69;4960597;28;20034;-88
2023/04/16 02:04:07;;;;;;;14.93;5.30;;;;;;;7.98;100.00;102143.53;4936303;28;20285;-88
2023/04/16 02:06:32;;;;;;;12.18;5.13;;;;;;;7.98;100.00;102139.25;4958509;28;20173;-88
2023/04/16 02:08:57;;;;;;;13.27;5.00;;;;;;;7.99;100.00;102137.50;4959864;28;20034;-88
2023/04/16 02:11:23;;;;;;;12.48;5.03;;;;;;;7.99;100.00;102143.53;4958943;28;20054;-88
2023/04/16 02:13:48;;;;;;;11.23;5.03;;;;;;;7.99;100.00;102134.91;4959972;28;20074;-89
2023/04/16 02:16:14;;;;;;;12.95;5.40;;;;;;;7.96;100.00;102132.31;4959931;28;20110;-88
2023/04/16 02:18:39;;;;;;;11.93;5.38;;;;;;;8.02;100.00;102142.69;4937730;28;20026;-88
2023/04/16 02:21:05;;;;;;;12.93;4.97;;;;;;;8.06;100.00;102145.31;4961051;28;20066;-88
2023/04/16 02:23:30;;;;;;;12.38;5.60;;;;;;;8.07;100.00;102147.03;4959488;28;20041;-89
2023/04/16 02:25:56;;;;;;;9.70;4.60;;;;;;;8.00;100.00;102141.81;4943332;28;20073;-88
2023/04/16 02:28:22;;;;;;;14.48;5.20;;;;;;;8.07;100.00;102141.88;4940595;28;20039;-89
2023/04/16 02:30:47;;;;;;;11.38;5.18;;;;;;;8.05;100.00;102140.16;4963199;28;20057;-88
2023/04/16 02:33:13;;;;;;;12.05;5.10;;;;;;;8.04;100.00;102141.88;4964252;28;20026;-88
2023/04/16 02:35:39;;;;;;;11.85;5.30;;;;;;;8.07;100.00;102143.59;4963352;28;20053;-88
2023/04/16 02:38:04;;;;;;;13.00;5.85;;;;;;;8.09;100.00;102147.91;4963076;28;20502;-88
2023/04/16 02:40:30;;;;;;;12.23;5.25;;;;;;;8.07;100.00;102156.50;4946436;28;20022;-88
2023/04/16 02:42:56;;;;;;;11.88;5.20;;;;;;;8.06;100.00;102150.47;4963110;28;20062;-88
2023/04/16 02:45:22;;;;;;;15.15;5.68;;;;;;;7.99;100.00;102142.66;4964211;28;20034;-89
2023/04/16 02:47:48;;;;;;;11.60;5.22;;;;;;;8.03;100.00;102153.03;4964698;28;20038;-88
2023/04/16 02:50:14;;;;;;;9.82;5.30;;;;;;;8.05;100.00;102150.47;4963039;28;20514;-88
2023/04/16 02:52:39;;;;;;;12.13;5.00;;;;;;;8.05;100.00;102148.72;4944736;28;20926;-88
2023/04/16 02:55:05;;;;;;;14.57;5.90;;;;;;;7.99;100.00;102140.06;4962248;28;20034;-89
2023/04/16 02:57:31;;;;;;;13.23;5.68;;;;;;;7.99;100.00;102153.84;4940474;28;20111;-88
2023/04/16 02:59:57;;;;;;;17.02;6.20;;;;;;;8.03;100.00;102158.22;4945792;28;20031;-88
2023/04/16 03:02:22;;;;;;;15.48;6.10;;;;;;;7.99;100.00;102142.66;4962980;28;20043;-88
2023/04/16 03:04:48;;;;;;;16.48;7.05;;;;;;;8.06;100.00;102154.75;4962692;28;20540;-88
2023/04/16 03:07:13;;;;;;;17.63;6.43;;;;;;;8.03;100.00;102147.00;4962383;28;20065;-88
2023/04/16 03:09:39;;;;;;;14.90;6.50;;;;;;;7.98;100.00;102140.97;4962905;28;20037;-88
2023/04/16 03:12:04;;;;;;;15.43;6.55;;;;;;;7.99;100.00;102140.94;4963066;28;20027;-88
2023/04/16 03:14:30;;;;;;;15.23;6.38;;;;;;;8.09;100.00;102158.25;4962518;28;20443;-88
2023/04/16 03:16:56;;;;;;;16.40;6.53;;;;;;;8.09;100.00;102165.13;4963657;28;20862;-88
2023/04/16 03:19:21;;;;;;;13.68;6.07;;;;;;;8.11;100.00;102173.75;4962952;28;20041;-88
2023/04/16 03:21:47;;;;;;;13.43;6.40;;;;;;;8.04;100.00;102159.94;4961800;28;20030;-88
2023/04/16 03:24:12;;;;;;;16.73;6.20;;;;;;;8.09;100.00;102167.72;4961346;28;20031;-88
2023/04/16 03:26:38;;;;;;;13.15;6.07;;;;;;;8.09;100.00;102173.75;4961274;28;20453;-89
2023/04/16 03:29:04;;;;;;;17.40;6.43;;;;;;;8.09;100.00;102178.03;4940394;28;20035;-88
2023/04/16 03:31:29;;;;;;;16.70;6.35;;;;;;;8.06;100.00;102171.13;4962111;28;20102;-88
2023/04/16 03:33:55;;;;;;;13.30;6.15;;;;;;;8.10;100.00;102166.88;4961538;28;20078;-88
2023/04/16 03:36:21;;;;;;;18.25;6.45;;;;;;;8.08;100.00;102168.56;4961052;28;20035;-88
2023/04/16 03:38:47;;;;;;;16.42;6.80;;;;;;;8.10;100.00;102169.44;4945896;28;20081;-88
2023/04/16 03:41:12;;;;;;;13.73;7.35;;;;;;;8.07;100.00;102172.84;4961708;28;20047;-88
2023/04/16 03:43:38;;;;;;;15.63;7.05;;;;;;;8.05;100.00;102171.13;4963900;28;20077;-88
2023/04/16 03:46:03;;;;;;;16.90;7.55;;;;;;;8.04;100.00;102164.25;4938951;28;20462;-88
2023/04/16 03:48:29;;;;;;;16.45;7.05;;;;;;;8.04;100.00;102172.84;4962648;28;20035;-88
2023/04/16 03:50:54;;;;;;;16.92;7.72;;;;;;;8.01;100.00;102165.06;4944875;28;20034;-88
2023/04/16 03:53:20;;;;;;;19.55;8.38;;;;;;;8.02;100.00;102158.19;4961670;28;20395;-88
2023/04/16 03:55:50;;;;;;;20.20;8.35;;;;;;;8.06;100.00;102175.41;4944495;28;20057;-88
2023/04/16 03:58:15;;;;;;;21.20;9.27;;;;;;;8.05;100.00;102171.13;4961883;28;20038;-88
2023/04/16 04:00:42;;;;;;;21.67;9.52;;;;;;;8.01;100.00;102172.81;4962179;28;20023;-89
2023/04/16 04:03:08;;;;;;;23.20;9.32;;;;;;;8.04;100.00;102172.84;4939693;28;20030;-88
2023/04/16 04:05:38;;;;;;;22.95;9.40;;;;;;;8.06;100.00;102176.28;4960106;28;20050;-89
2023/04/16 04:08:04;;;;;;;23.33;10.15;;;;;;;7.94;100.00;102165.88;4962123;28;20037;-88
2023/04/16 04:10:34;;;;;;;22.98;9.27;;;;;;;8.04;100.00;102182.31;4962318;28;20027;-88
2023/04/16 04:13:01;;;;;;;21.02;9.75;;;;;;;8.03;100.00;102188.31;4961469;28;20035;-88
2023/04/16 04:15:27;;;;;;;20.65;10.05;;;;;;;8.03;100.00;102184.03;4938244;28;20641;-88
2023/04/16 04:17:52;;;;;;;23.05;9.60;;;;;;;7.98;100.00;102180.56;4961059;28;20031;-88
2023/04/16 04:20:17;;;;;;;22.10;9.68;;;;;;;8.03;100.00;102191.78;4944019;28;20030;-88
2023/04/16 04:22:43;;;;;;;21.13;9.77;;;;;;;8.03;100.00;102184.03;4961208;28;20050;-88
2023/04/16 04:25:11;;;;;;;20.10;10.10;;;;;;;8.04;100.00;102183.19;4945525;28;20023;-88
2023/04/16 04:27:37;;;;;;;22.33;9.82;;;;;;;8.01;100.00;102179.69;4961098;28;20036;-88
2023/04/16 04:30:05;;;;;;;19.50;9.90;;;;;;;8.05;100.00;102189.22;4961543;28;20099;-88
2023/04/16 04:32:30;;;;;;;24.00;9.93;;;;;;;8.04;100.00;102184.91;4940783;28;20034;-89
2023/04/16 04:34:56;;;;;;;20.27;8.75;;;;;;;8.05;100.00;102195.22;4937277;28;20041;-88
2023/04/16 04:37:22;;;;;;;20.75;9.45;;;;;;;8.05;100.00;102195.22;4936620;28;20109;-88
2023/04/16 04:39:48;;;;;;;17.98;8.85;;;;;;;8.03;100.00;102196.06;4961065;28;20027;-88
2023/04/16 04:42:17;;;;;;;23.33;9.10;;;;;;;8.00;100.00;102193.44;4955312;28;20038;-88
2023/04/16 04:44:42;;;;;;;19.52;8.75;;;;;;;7.98;100.00;102193.47;4955612;28;20058;-88
2023/04/16 04:47:07;;;;;;;19.15;9.55;;;;;;;7.86;100.00;102176.13;4955255;28;20117;-88
2023/04/16 04:49:33;;;;;;;18.58;9.00;;;;;;;7.96;100.00;102190.00;4958546;28;20035;-89
2023/04/16 04:51:58;;;;;;;18.73;9.02;;;;;;;8.03;100.00;102201.25;4942282;28;20034;-88
2023/04/16 04:54:27;;;;;;;16.35;8.80;;;;;;;8.00;100.00;102206.34;4955969;28;20205;-88
2023/04/16 04:56:52;;;;;;;19.73;8.93;;;;;;;7.93;100.00;102201.16;4959435;28;20491;-88
2023/04/16 04:59:19;;;;;;;19.85;9.15;;;;;;;7.99;100.00;102210.66;4960467;28;20277;-88
2023/04/16 05:01:44;;;;;;;20.13;9.25;;;;;;;8.00;100.00;102222.72;4934515;28;20046;-89
2023/04/16 05:04:10;;;;;;;20.83;8.43;;;;;;;8.00;100.00;102207.22;4955348;28;20514;-88
2023/04/16 05:06:35;;;;;;;21.90;8.98;;;;;;;7.98;100.00;102208.09;4955436;28;20043;-88
2023/04/16 05:09:04;;;;;;;20.35;9.23;;;;;;;7.98;100.00;102211.53;4954698;28;20727;-88
2023/04/16 05:11:29;;;;;;;23.15;9.70;;;;;;;7.96;100.00;102210.66;4956972;28;20050;-88
2023/04/16 05:13:55;;;;;;;22.75;9.32;;;;;;;7.97;100.00;102216.69;4957111;28;20554;-88
2023/04/16 05:16:20;;;;;;;19.92;8.95;;;;;;;7.96;100.00;102217.53;4955871;28;20039;-88
2023/04/16 05:18:45;;;;;;;24.88;9.18;;;;;;;7.88;100.00;102210.56;4955688;28;20078;-89
2023/04/16 05:21:11;;;;;;;20.70;9.02;;;;;;;7.85;100.00;102204.50;4955832;28;20078;-88
2023/04/16 05:23:36;;;;;;;17.98;8.82;;;;;;;7.86;100.00;102204.53;4959906;28;20027;-88
2023/04/16 05:26:05;;;;;;;19.30;8.82;;;;;;;7.91;100.00;102215.75;4958083;28;20030;-87
2023/04/16 05:28:32;;;;;;;23.83;9.88;;;;;;;7.97;100.00;102222.72;4956384;28;20023;-88
2023/04/16 05:31:00;;;;;;;21.00;9.55;;;;;;;7.95;100.00;102219.25;4959095;28;20030;-89
2023/04/16 05:33:26;;;;;;;22.20;9.85;;;;;;;8.02;100.00;102235.66;4958452;28;20023;-88
2023/04/16 05:35:51;;;;;;;23.02;9.50;;;;;;;8.01;100.00;102226.16;4959158;28;20035;-88
2023/04/16 05:38:17;;;;;;;21.88;9.65;;;;;;;8.04;100.00;102226.22;4961137;28;20475;-88
2023/04/16 05:40:42;;;;;;;26.42;9.93;;;;;;;7.89;100.00;102204.56;4960696;28;20041;-88
2023/04/16 05:43:07;;;;;;;21.55;9.77;;;;;;;7.89;100.00;102209.72;4959595;28;20084;-88
2023/04/16 05:45:38;;;;;;;22.95;10.48;;;;;;;8.00;100.00;102233.03;4935946;28;20392;-89
2023/04/16 05:48:04;;;;;;;21.13;9.20;;;;;;;7.91;100.00;102212.34;4958915;28;20073;-89
2023/04/16 05:50:30;;;;;;;28.17;10.10;;;;;;;8.00;100.00;102227.00;4958261;28;20038;-89
2023/04/16 05:52:55;;;;;;;24.45;9.73;;;;;;;7.95;100.00;102221.81;4940763;28;20031;-88
2023/04/16 05:55:20;;;;;;;25.95;10.05;;;;;;;7.99;100.00;102227.84;4959932;28;20336;-88
2023/04/16 05:57:46;;;;;;;25.40;9.70;;;;;;;8.06;100.00;102235.69;4958806;28;20027;-88
2023/04/16 06:00:11;;;;;;;27.85;10.95;;;;;;;8.02;100.00;102236.53;4961720;28;21681;-88
2023/04/16 06:02:37;;;;;;;24.27;10.63;;;;;;;8.06;100.00;102237.41;4963580;28;20342;-88
2023/04/16 06:05:02;;;;;;;24.05;10.13;;;;;;;8.05;100.00;102239.09;4946208;28;20158;-89
2023/04/16 06:07:28;;;;;;;31.27;10.88;;;;;;;8.11;100.00;102252.09;4963294;28;20080;-88
2023/04/16 06:09:53;;;;;;;29.13;10.32;;;;;;;8.09;100.00;102248.63;4944823;28;20034;-88
2023/04/16 06:12:22;;;;;;;28.00;10.35;;;;;;;8.06;100.00;102239.97;4949462;28;20027;-88
2023/04/16 06:14:47;;;;;;;24.65;10.07;;;;;;;8.03;100.00;102238.25;4961972;28;21215;-88
2023/04/16 06:17:13;;;;;;;28.88;10.90;;;;;;;8.03;100.00;102234.81;4946034;28;20162;-88
2023/04/16 06:20:10;;;;;;;27.52;10.98;;;;;;;8.18;100.00;102256.47;4963030;28;20444;-88
2023/04/16 06:22:36;;;;;;;28.65;10.23;;;;;;;8.00;100.00;102221.84;4940060;28;20065;-88
2023/04/16 06:25:04;;;;;;;27.00;10.55;;;;;;;8.16;100.00;102245.25;4963522;28;20023;-89
2023/04/16 06:27:39;;;;;;;29.52;10.73;;;;;;;8.19;100.00;102252.16;4962352;28;20031;-89
2023/04/16 06:30:22;;;;;;;;;;;;;;;8.29;100.00;102260.00;4964890;28;20081;-89
2023/04/16 06:32:48;;;;;;;25.80;10.90;;;;;;;8.09;100.00;102234.84;4939325;28;19929;-88
2023/04/16 06:35:19;;;;;;;32.58;11.60;;;;;;;8.15;100.00;102253.84;4961203;28;20042;-88
2023/04/16 06:37:51;;;;;;;27.83;10.75;;;;;;;8.09;100.00;102233.13;4953775;28;20066;-88
2023/04/16 06:40:19;;;;;;;30.83;11.43;;;;;;;8.12;100.00;102240.06;4964476;28;20113;-89
2023/04/16 06:43:02;;;;;;;29.10;11.50;;;;;;;8.15;100.00;102245.22;4942296;28;20034;-88
2023/04/16 06:45:30;;;;;;;34.10;12.40;;;;;;;8.23;100.00;102262.53;4943286;28;20089;-88
2023/04/16 06:48:02;;;;;;;28.52;11.82;;;;;;;8.13;100.00;102246.94;4938735;28;20038;-89
2023/04/16 06:50:33;;;;;;;26.10;11.02;;;;;;;8.15;100.00;102256.44;4956608;28;20145;-88
2023/04/16 06:53:05;;;;;;;26.63;11.43;;;;;;;8.29;100.00;102279.81;4940698;28;20290;-87
2023/04/16 06:55:39;;;;;;;32.72;12.15;;;;;;;8.32;100.00;102282.47;4942550;28;20043;-88
2023/04/16 06:58:14;;;;;;;27.52;10.80;;;;;;;8.27;100.00;102272.03;4949324;28;20169;-88
2023/04/16 07:00:43;;;;;;;28.05;10.88;;;;;;;8.28;100.00;102266.03;4963354;28;20039;-88
2023/04/16 07:03:08;;;;;;;29.13;11.70;;;;;;;8.41;100.00;102290.28;4963076;28;20027;-88
2023/04/16 07:05:39;;;;;;;26.17;10.80;;;;;;;8.33;100.00;102277.28;4962017;28;20065;-88
2023/04/16 07:08:10;;;;;;;31.08;11.85;;;;;;;8.26;100.00;102272.88;4946448;28;20041;-89
2023/04/16 07:10:42;;;;;;;33.38;11.23;;;;;;;8.31;100.00;102272.97;4945846;28;20023;-89
2023/04/16 07:13:20;;;;;;;26.85;11.13;;;;;;;8.50;100.00;102303.28;4962214;28;20027;-88
2023/04/16 07:15:46;;;;;;;26.92;11.80;;;;;;;8.32;100.00;102272.97;4961907;28;20053;-88
2023/04/16 07:18:17;;;;;;;26.60;11.43;;;;;;;8.48;100.00;102297.22;4941042;28;20047;-89
2023/04/16 07:20:57;;;;;;;28.80;11.98;;;;;;;8.55;100.00;102298.13;4961712;28;20071;-88
2023/04/16 07:23:26;;;;;;;26.33;11.32;;;;;;;8.52;100.00;102299.00;4962817;28;20034;-88
2023/04/16 07:25:52;;;;;;;28.80;11.48;;;;;;;8.47;100.00;102287.72;4961178;28;20032;-88
2023/04/16 07:28:26;;;;;;;31.25;12.45;;;;;;;8.59;100.00;102303.34;4961367;28;20087;-88
2023/04/16 07:30:51;;;;;;;;;;;;;;;8.72;100.00;102317.25;4943061;28;20045;-89
2023/04/16 07:33:19;;;;;;;28.25;11.52;;;;;;;8.59;100.00;102293.03;4944255;28;19968;-88
2023/04/16 07:36:01;;;;;;;30.67;11.73;;;;;;;8.51;100.00;102283.47;4947962;28;20023;-88
2023/04/16 07:38:26;;;;;;;30.88;12.30;;;;;;;8.50;100.00;102290.34;4963298;28;20026;-88
2023/04/16 07:40:52;;;;;;;27.08;12.30;;;;;;;8.58;100.00;102317.13;4937813;28;20052;-88
2023/04/16 07:43:17;;;;;;;26.60;11.43;;;;;;;8.67;100.00;102324.06;4938426;28;20031;-88
2023/04/16 07:45:43;;;;;;;28.70;11.77;;;;;;;8.67;100.00;102332.69;4945056;28;20097;-88
2023/04/16 07:48:08;;;;;;;30.33;12.25;;;;;;;8.67;100.00;102330.09;4949813;28;20487;-88
2023/04/16 07:50:33;;;;;;;29.15;12.05;;;;;;;8.70;100.00;102335.31;4962229;28;20479;-86
2023/04/16 07:52:59;;;;;;;32.15;12.30;;;;;;;8.66;100.00;102338.75;4961794;28;20370;-85
2023/04/16 07:55:24;;;;;;;33.38;12.43;;;;;;;8.71;100.00;102333.59;4960060;28;20038;-88
2023/04/16 07:57:50;;;;;;;31.65;12.63;;;;;;;8.62;100.00;102315.41;4944954;28;20022;-89
2023/04/16 08:00:15;;;;;;;28.33;12.70;;;;;;;8.63;100.00;102322.31;4960539;28;20035;-89
2023/04/16 08:02:42;;;;;;;31.25;12.15;;;;;;;8.74;100.00;102343.94;4943275;28;20400;-88
2023/04/16 08:05:08;;;;;;;30.08;12.70;;;;;;;8.78;100.00;102347.44;4961754;28;20453;-88
2023/04/16 08:07:33;;;;;;;31.67;12.07;;;;;;;8.83;100.00;102356.09;4960683;28;20524;-89
2023/04/16 08:09:58;;;;;;;32.30;12.32;;;;;;;8.79;100.00;102352.63;4960106;28;20057;-89
2023/04/16 08:12:24;;;;;;;31.98;13.05;;;;;;;8.87;100.00;102352.69;4960142;28;20514;-89
2023/04/16 08:14:49;;;;;;;33.63;12.18;;;;;;;8.91;100.00;102363.06;4937858;28;20057;-89
2023/04/16 08:17:15;;;;;;;29.80;13.02;;;;;;;8.91;100.00;102362.19;4942432;28;20066;-89
2023/04/16 08:19:41;;;;;;;34.33;13.13;;;;;;;8.88;100.00;102352.69;4961213;28;20030;-88
2023/04/16 08:22:07;;;;;;;32.05;12.95;;;;;;;8.97;100.00;102362.22;4938864;28;20038;-89
2023/04/16 08:24:32;;;;;;;36.92;13.43;;;;;;;8.91;100.00;102360.47;4961993;28;20404;-89
2023/04/16 08:26:58;;;;;;;30.58;12.18;;;;;;;8.88;100.00;102360.44;4959853;28;20035;-88
2023/04/16 08:29:25;;;;;;;31.55;12.45;;;;;;;9.00;100.00;102373.47;4945483;28;20302;-89
2023/04/16 08:31:51;;;;;;;35.28;13.23;;;;;;;9.01;100.00;102375.19;4938519;28;20038;-88
2023/04/16 08:34:16;;;;;;;30.10;12.32;;;;;;;8.97;100.00;102368.28;4942205;28;20030;-89
2023/04/16 08:36:42;;;;;;;31.70;13.45;;;;;;;9.01;100.00;102374.31;4960428;28;20479;-88
2023/04/16 08:39:07;;;;;;;32.08;13.40;;;;;;;9.04;100.00;102367.47;4938573;28;20049;-89
2023/04/16 08:41:35;;;;;;;31.55;12.52;;;;;;;9.10;100.00;102375.25;4959916;28;20031;-88
2023/04/16 08:44:07;;;;;;;29.75;12.80;;;;;;;9.11;100.00;102370.94;4959699;28;20027;-89
2023/04/16 08:46:36;;;;;;;32.20;13.35;;;;;;;9.11;100.00;102371.81;4944581;28;20033;-89
2023/04/16 08:49:05;;;;;;;33.45;12.88;;;;;;;9.19;100.00;102382.22;4940907;28;20031;-89
2023/04/16 08:51:34;;;;;;;33.05;13.43;;;;;;;9.21;100.00;102374.47;4959891;28;20034;-89
2023/04/16 08:54:03;;;;;;;38.15;14.00;;;;;;;9.25;100.00;102379.69;4944260;28;20033;-89
2023/04/16 08:56:30;;;;;;;36.95;14.80;;;;;;;9.33;100.00;102387.50;4958827;28;20054;-88
2023/04/16 08:58:57;;;;;;;39.40;13.95;;;;;;;9.20;100.00;102364.97;4942370;28;20094;-89
2023/04/16 09:01:25;;;;;;;37.42;14.00;;;;;;;9.31;100.00;102384.88;4944043;28;20225;-90
2023/04/16 09:03:51;;;;;;;34.97;13.98;;;;;;;9.32;100.00;102368.50;4960729;28;20484;-89
2023/04/16 09:06:17;;;;;;;33.40;14.43;;;;;;;9.45;100.00;102388.44;4958091;28;20057;-89
2023/04/16 09:08:48;;;;;;;34.35;14.38;;;;;;;9.49;100.00;102392.75;4936787;28;20191;-88
2023/04/16 09:11:16;;;;;;;35.25;14.23;;;;;;;9.56;100.00;102397.97;4957947;28;20045;-88
2023/04/16 09:13:44;;;;;;;37.17;14.77;;;;;;;9.49;100.00;102384.13;4960077;28;20026;-88
2023/04/16 09:16:10;;;;;;;35.47;14.52;;;;;;;9.59;100.00;102396.25;4959774;28;20102;-88
2023/04/16 09:18:35;;;;;;;32.03;13.90;;;;;;;9.64;100.00;102394.56;4960489;28;20031;-88
2023/04/16 09:21:01;;;;;;;39.08;14.43;;;;;;;9.63;100.00;102399.72;4960656;28;20438;-89
2023/04/16 09:23:28;;;;;;;35.80;16.05;;;;;;;9.68;100.00;102400.63;4944364;28;20519;-89
2023/04/16 09:25:55;;;;;;;32.80;14.82;;;;;;;9.72;100.00;102411.00;4959170;28;20118;-88
2023/04/16 09:28:42;;;;;;;43.22;16.50;;;;;;;9.73;100.00;102410.16;4961310;28;20026;-89
2023/04/16 09:31:13;;;;;;;31.75;15.00;;;;;;;9.72;100.00;102413.59;4960639;28;20018;-89
2023/04/16 09:33:38;;;;;;;38.72;14.90;;;;;;;9.74;100.00;102413.59;4961127;28;20058;-88
2023/04/16 09:36:05;;;;;;;32.78;15.27;;;;;;;9.67;100.00;102407.53;4965267;28;20125;-88
2023/04/16 09:38:51;;;;;;;35.05;15.27;;;;;;;9.70;100.00;102417.88;4964194;28;20031;-88
2023/04/16 09:41:17;;;;;;;34.25;15.05;;;;;;;9.74;100.00;102424.84;4945667;28;20038;-88
2023/04/16 09:43:59;;;;;;;35.28;15.60;;;;;;;9.74;100.00;102432.59;4944317;28;20027;-88
2023/04/16 09:46:34;;;;;;;33.92;15.50;;;;;;;9.75;100.00;102428.28;4963134;28;20109;-89
2023/04/16 09:49:12;;;;;;;38.75;15.18;;;;;;;9.79;100.00;102425.72;4950731;28;20045;-89
2023/04/16 09:51:42;;;;;;;37.70;15.88;;;;;;;9.72;100.00;102408.41;4961547;28;20027;-89
2023/04/16 09:54:08;;;;;;;36.85;15.57;;;;;;;9.77;100.00;102417.06;4945118;28;20399;-89
2023/04/16 09:56:40;;;;;;;42.42;16.15;;;;;;;9.89;100.00;102429.22;4964690;28;20030;-89
2023/04/16 09:59:08;;;;;;;33.78;15.82;;;;;;;9.92;100.00;102431.81;4963956;28;20050;-89
2023/04/16 10:01:35;;;;;;;37.25;15.52;;;;;;;9.98;100.00;102428.38;4963658;28;20039;-88
2023/04/16 10:04:00;;;;;;;37.30;15.88;;;;;;;9.97;100.00;102424.91;4964815;28;20031;-89
2023/04/16 10:06:30;;;;;;;38.95;16.67;;;;;;;9.90;100.00;102417.97;4962743;28;20059;-89
2023/04/16 10:08:56;;;;;;;38.03;16.23;;;;;;;10.00;100.00;102439.63;4961200;28;20035;-89
2023/04/16 10:11:22;;;;;;;35.33;15.15;;;;;;;10.00;100.00;102437.91;4964201;28;20396;-88
2023/04/16 10:13:50;;;;;;;33.33;15.15;;;;;;;10.02;100.00;102435.31;4962401;28;20031;-89
2023/04/16 10:16:16;;;;;;;33.35;15.05;;;;;;;10.09;100.00;102444.84;4960077;28;20037;-88
2023/04/16 10:18:44;;;;;;;37.22;15.73;;;;;;;10.17;100.00;102444.03;4945801;28;20125;-89
2023/04/16 10:21:14;;;;;;;37.42;15.98;;;;;;;10.19;100.00;102438.84;4962675;28;20066;-88
2023/04/16 10:23:40;;;;;;;35.58;16.77;;;;;;;10.24;100.00;102439.72;4944907;28;20447;-89
2023/04/16 10:26:05;;;;;;;37.50;16.40;;;;;;;10.28;100.00;102436.31;4957396;28;20035;-87
2023/04/16 10:28:34;;;;;;;38.28;16.60;;;;;;;10.34;100.00;102438.91;4940475;28;20085;-88
2023/04/16 10:31:01;;;;;;;32.35;15.82;;;;;;;10.39;100.00;102433.72;4940565;28;20023;-88
2023/04/16 10:33:30;;;;;;;35.10;16.05;;;;;;;10.49;100.00;102440.69;4958354;28;20291;-87
2023/04/16 10:36:15;;;;;;;35.92;16.65;;;;;;;10.60;100.00;102444.16;4961946;28;20162;-88
2023/04/16 10:38:46;;;;;;;37.13;15.82;;;;;;;10.68;100.00;102442.44;4963442;28;20019;-88
2023/04/16 10:41:11;;;;;;;30.55;15.00;;;;;;;10.72;100.00;102444.16;4959369;28;20584;-88
2023/04/16 10:43:49;;;;;;;38.10;16.48;;;;;;;10.73;100.00;102447.63;4961024;28;20557;-88
2023/04/16 10:46:21;;;;;;;38.60;16.33;;;;;;;10.66;100.00;102447.63;4943019;28;20578;-88
2023/04/16 10:48:48;;;;;;;32.90;15.52;;;;;;;10.65;100.00;102447.63;4938993;28;20073;-91
2023/04/16 10:51:34;;;;;;;34.65;15.88;;;;;;;10.63;100.00;102439.84;4956557;28;20031;-88
2023/04/16 10:54:02;;;;;;;32.38;15.18;;;;;;;10.74;100.00;102445.03;4960058;28;20043;-88
2023/04/16 10:56:33;;;;;;;35.03;15.38;;;;;;;10.61;100.00;102422.56;4958692;28;20022;-89
2023/04/16 10:59:04;;;;;;;36.53;15.13;;;;;;;10.66;100.00;102424.28;4940337;28;20034;-88
2023/04/16 11:01:36;;;;;;;33.85;15.25;;;;;;;10.73;100.00;102426.88;4961099;28;20038;-88
2023/04/16 11:04:23;;;;;;;34.65;15.48;;;;;;;10.93;100.00;102453.69;4963246;28;20081;-88
2023/04/16 11:07:10;;;;;;;34.05;15.63;;;;;;;10.94;100.00;102451.13;4945102;28;20057;-88
2023/04/16 11:10:11;;;;;;;33.15;15.48;;;;;;;11.05;100.00;102446.78;4953346;28;20061;-89
2023/04/16 11:12:38;;;;;;;34.00;15.35;;;;;;;11.18;100.00;102447.66;4963995;28;20030;-88
2023/04/16 11:15:09;;;;;;;30.42;14.52;;;;;;;11.27;100.00;102429.47;4945416;28;20019;-88